createdAt,value
2018-03-28T00:01:37.690Z,20.40
2018-03-28T00:02:37.649Z,20.70
2018-03-28T00:04:31.321Z,21.60
2018-03-28T00:05:31.284Z,22.80
2018-03-28T00:07:25.224Z,22.50
2018-03-28T00:08:24.908Z,22.40
2018-03-28T00:10:19.342Z,23.80
2018-03-28T00:11:18.550Z,22.80
2018-03-28T00:13:12.204Z,20.50
2018-03-28T00:14:12.182Z,20.40
2018-03-28T00:16:05.960Z,22.60
2018-03-28T00:17:05.929Z,21.20
2018-03-28T00:18:59.703Z,20.20
2018-03-28T00:19:59.645Z,21.00
2018-03-28T00:21:53.290Z,21.60
2018-03-28T00:22:53.248Z,21.30
2018-03-28T00:24:46.934Z,20.90
2018-03-28T00:25:46.889Z,21.50
2018-03-28T00:27:41.563Z,20.40
2018-03-28T00:28:41.548Z,20.80
2018-03-28T00:30:35.150Z,21.40
2018-03-28T00:31:35.147Z,21.90
2018-03-28T00:33:28.694Z,20.90
2018-03-28T00:34:28.659Z,21.70
2018-03-28T00:36:23.094Z,23.90
2018-03-28T00:37:22.164Z,21.20
2018-03-28T00:39:15.863Z,23.60
2018-03-28T00:40:15.822Z,22.50
2018-03-28T00:42:09.561Z,22.20
2018-03-28T00:43:09.534Z,26.00
2018-03-28T00:45:03.194Z,22.80
2018-03-28T00:46:03.150Z,22.50
2018-03-28T00:47:56.775Z,22.60
2018-03-28T00:48:56.725Z,24.00
2018-03-28T00:50:50.366Z,24.40
2018-03-28T00:51:50.326Z,25.10
2018-03-28T00:53:43.943Z,24.30
2018-03-28T00:54:43.917Z,25.80
2018-03-28T00:56:37.539Z,30.30
2018-03-28T00:57:37.500Z,29.10
2018-03-28T00:59:31.933Z,30.60
2018-03-28T01:00:31.129Z,31.80
2018-03-28T01:02:24.649Z,28.80
2018-03-28T01:03:24.633Z,32.20
2018-03-28T01:05:19.826Z,32.00
2018-03-28T01:06:19.779Z,31.80
2018-03-28T01:08:13.390Z,32.10
2018-03-28T01:09:13.386Z,32.90
2018-03-28T01:11:07.816Z,31.10
2018-03-28T01:12:06.904Z,32.20
2018-03-28T01:14:00.380Z,31.70
2018-03-28T01:15:00.365Z,32.90
2018-03-28T01:16:54.045Z,33.10
2018-03-28T01:17:53.996Z,30.50
2018-03-28T01:19:47.641Z,32.20
2018-03-28T01:20:47.604Z,32.20
2018-03-28T01:22:41.214Z,29.90
2018-03-28T01:23:41.200Z,32.30
2018-03-28T01:25:35.633Z,30.10
2018-03-28T01:26:34.767Z,29.70
2018-03-28T01:28:29.192Z,30.30
2018-03-28T01:29:28.397Z,28.50
2018-03-28T01:31:22.031Z,30.00
2018-03-28T01:32:21.991Z,30.30
2018-03-28T01:34:15.496Z,34.00
2018-03-28T01:35:15.486Z,33.20
2018-03-28T01:37:09.070Z,30.00
2018-03-28T01:38:09.029Z,33.90
2018-03-28T01:40:02.704Z,35.90
2018-03-28T01:41:02.664Z,32.30
2018-03-28T01:42:57.094Z,34.70
2018-03-28T01:43:56.362Z,33.10
2018-03-28T01:45:49.912Z,35.10
2018-03-28T01:46:49.858Z,35.40
2018-03-28T01:48:44.272Z,32.60
2018-03-28T01:49:43.564Z,32.30
2018-03-28T01:51:37.192Z,36.30
2018-03-28T01:52:37.140Z,34.90
2018-03-28T01:54:30.879Z,31.40
2018-03-28T01:55:30.845Z,31.70
2018-03-28T01:57:24.539Z,34.60
2018-03-28T01:58:24.517Z,33.70
2018-03-28T01:59:24.503Z,33.30
2018-03-28T02:00:24.497Z,33.90
2018-03-28T02:01:24.490Z,36.70
2018-03-28T02:02:24.474Z,34.60
2018-03-28T02:03:24.466Z,33.90
2018-03-28T02:04:24.456Z,34.30
2018-03-28T02:05:24.445Z,36.80
2018-03-28T02:06:24.437Z,34.60
2018-03-28T02:07:24.426Z,32.40
2018-03-28T02:08:24.417Z,35.20
2018-03-28T02:09:24.404Z,32.70
2018-03-28T02:10:24.396Z,32.60
2018-03-28T02:11:24.385Z,37.70
2018-03-28T02:12:24.380Z,31.90
2018-03-28T02:13:24.369Z,32.00
2018-03-28T02:14:24.362Z,36.30
2018-03-28T02:15:24.349Z,34.40
2018-03-28T02:16:24.336Z,32.70
2018-03-28T02:17:24.333Z,32.80
2018-03-28T02:18:24.323Z,37.40
2018-03-28T02:19:24.311Z,32.60
2018-03-28T02:20:24.301Z,33.20
2018-03-28T02:21:24.289Z,38.10
2018-03-28T02:22:24.283Z,36.00
2018-03-28T02:23:24.274Z,36.00
2018-03-28T02:24:24.263Z,34.70
2018-03-28T02:25:24.254Z,32.60
2018-03-28T02:26:24.243Z,35.00
2018-03-28T02:27:24.229Z,34.00
2018-03-28T02:28:24.223Z,33.00
2018-03-28T02:29:24.212Z,34.50
2018-03-28T02:30:24.209Z,38.40
2018-03-28T02:31:24.195Z,34.50
2018-03-28T02:32:24.187Z,35.80
2018-03-28T02:33:24.176Z,34.00
2018-03-28T02:34:24.165Z,44.60
2018-03-28T02:35:24.155Z,39.90
2018-03-28T02:36:24.149Z,38.60
2018-03-28T02:37:24.138Z,36.10
2018-03-28T02:38:24.130Z,34.60
2018-03-28T02:39:24.127Z,36.00
2018-03-28T02:40:24.105Z,33.30
2018-03-28T02:41:24.094Z,33.70
2018-03-28T02:42:24.086Z,34.00
2018-03-28T02:43:24.075Z,36.30
2018-03-28T02:44:24.070Z,35.00
2018-03-28T02:45:24.065Z,36.10
2018-03-28T02:46:24.052Z,34.30
2018-03-28T02:47:24.043Z,34.70
2018-03-28T02:48:24.045Z,34.50
2018-03-28T02:49:24.019Z,32.50
2018-03-28T02:50:24.030Z,38.40
2018-03-28T02:51:24.004Z,34.40
2018-03-28T02:52:23.994Z,35.00
2018-03-28T02:53:23.992Z,36.30
2018-03-28T02:54:23.977Z,36.60
2018-03-28T02:55:23.978Z,33.70
2018-03-28T02:56:23.956Z,35.20
2018-03-28T02:57:23.944Z,33.60
2018-03-28T02:58:23.935Z,35.70
2018-03-28T02:59:23.929Z,37.20
2018-03-28T03:00:23.919Z,38.80
2018-03-28T03:01:23.909Z,39.70
2018-03-28T03:02:23.898Z,39.50
2018-03-28T03:03:23.886Z,40.60
2018-03-28T03:04:23.876Z,39.70
2018-03-28T03:05:23.880Z,38.20
2018-03-28T03:06:23.862Z,38.20
2018-03-28T03:07:23.851Z,38.10
2018-03-28T03:08:23.917Z,38.30
2018-03-28T03:09:23.828Z,39.70
2018-03-28T03:10:23.818Z,42.80
2018-03-28T03:11:23.811Z,39.50
2018-03-28T03:12:23.801Z,41.10
2018-03-28T03:13:23.797Z,40.00
2018-03-28T03:14:23.787Z,45.30
2018-03-28T03:15:23.773Z,41.50
2018-03-28T03:16:23.766Z,43.20
2018-03-28T03:17:23.754Z,40.80
2018-03-28T03:18:23.747Z,41.60
2018-03-28T03:19:23.740Z,42.10
2018-03-28T03:20:23.728Z,42.10
2018-03-28T03:21:23.719Z,43.50
2018-03-28T03:22:23.709Z,41.00
2018-03-28T03:23:23.699Z,42.30
2018-03-28T03:24:23.687Z,43.10
2018-03-28T03:25:23.679Z,45.30
2018-03-28T03:26:23.671Z,45.00
2018-03-28T03:27:23.660Z,45.20
2018-03-28T03:28:23.657Z,47.20
2018-03-28T03:29:23.642Z,53.30
2018-03-28T03:30:23.629Z,53.20
2018-03-28T03:31:23.633Z,51.30
2018-03-28T03:32:23.610Z,55.10
2018-03-28T03:33:23.604Z,60.60
2018-03-28T03:34:23.596Z,61.60
2018-03-28T03:35:23.587Z,58.00
2018-03-28T03:36:23.573Z,59.70
2018-03-28T03:37:23.568Z,63.70
2018-03-28T03:38:23.558Z,56.30
2018-03-28T03:39:23.548Z,55.90
2018-03-28T03:40:23.536Z,59.80
2018-03-28T03:41:23.524Z,60.10
2018-03-28T03:42:23.522Z,61.30
2018-03-28T03:43:23.512Z,73.80
2018-03-28T03:44:23.496Z,75.70
2018-03-28T03:45:23.488Z,66.30
2018-03-28T03:46:23.478Z,69.40
2018-03-28T03:47:23.473Z,66.60
2018-03-28T03:48:23.458Z,71.60
2018-03-28T03:49:23.454Z,76.80
2018-03-28T03:50:23.442Z,79.80
2018-03-28T03:51:23.432Z,83.20
2018-03-28T03:52:23.428Z,74.00
2018-03-28T03:53:23.415Z,77.60
2018-03-28T03:54:23.406Z,73.60
2018-03-28T03:55:23.400Z,72.20
2018-03-28T03:56:23.388Z,87.50
2018-03-28T03:57:23.373Z,104.70
2018-03-28T03:58:23.366Z,93.40
2018-03-28T03:59:23.355Z,78.20
2018-03-28T04:00:23.348Z,86.90
2018-03-28T04:01:23.341Z,66.00
2018-03-28T04:02:23.332Z,78.90
2018-03-28T04:03:23.321Z,85.40
2018-03-28T04:04:23.308Z,92.20
2018-03-28T04:05:23.314Z,86.60
2018-03-28T04:06:23.295Z,81.70
2018-03-28T04:07:23.283Z,93.00
2018-03-28T04:08:23.274Z,97.20
2018-03-28T04:09:23.264Z,99.70
2018-03-28T04:10:23.255Z,89.20
2018-03-28T04:11:23.244Z,75.80
2018-03-28T04:12:23.259Z,106.40
2018-03-28T04:13:23.228Z,118.10
2018-03-28T04:14:23.218Z,99.10
2018-03-28T04:15:23.209Z,103.80
2018-03-28T04:16:23.197Z,116.50
2018-03-28T04:17:23.193Z,104.00
2018-03-28T04:18:23.178Z,146.10
2018-03-28T04:19:23.174Z,109.00
2018-03-28T04:20:23.162Z,112.20
2018-03-28T04:21:23.156Z,170.40
2018-03-28T04:22:23.144Z,139.00
2018-03-28T04:23:23.134Z,145.20
2018-03-28T04:24:23.128Z,241.60
2018-03-28T04:25:23.114Z,141.90
2018-03-28T04:26:23.104Z,102.60
2018-03-28T04:27:23.095Z,155.30
2018-03-28T04:28:23.087Z,218.40
2018-03-28T04:29:23.081Z,190.50
2018-03-28T04:30:23.066Z,114.50
2018-03-28T04:31:23.057Z,113.00
2018-03-28T04:32:23.048Z,127.90
2018-03-28T04:33:23.038Z,108.60
2018-03-28T04:34:23.032Z,134.00
2018-03-28T04:35:23.023Z,167.60
2018-03-28T04:36:23.015Z,197.10
2018-03-28T04:37:23.002Z,135.70
2018-03-28T04:38:22.990Z,134.90
2018-03-28T04:39:22.981Z,172.40
2018-03-28T04:40:22.977Z,196.70
2018-03-28T04:41:22.970Z,147.70
2018-03-28T04:42:22.967Z,139.90
2018-03-28T04:43:22.946Z,171.00
2018-03-28T04:44:22.933Z,146.80
2018-03-28T04:45:22.924Z,196.20
2018-03-28T04:46:22.917Z,168.60
2018-03-28T04:47:22.908Z,133.80
2018-03-28T04:48:22.903Z,140.60
2018-03-28T04:49:22.893Z,157.10
2018-03-28T04:50:22.881Z,171.80
2018-03-28T04:51:22.884Z,150.70
2018-03-28T04:52:22.863Z,152.20
2018-03-28T04:53:22.854Z,172.10
2018-03-28T04:54:22.852Z,179.10
2018-03-28T04:55:22.836Z,217.20
2018-03-28T04:56:22.826Z,156.40
2018-03-28T04:57:22.813Z,182.30
2018-03-28T04:58:22.813Z,168.60
2018-03-28T04:59:22.794Z,172.50
2018-03-28T05:00:22.790Z,291.10
2018-03-28T05:01:22.780Z,232.50
2018-03-28T05:02:22.771Z,208.80
2018-03-28T05:03:22.762Z,140.00
2018-03-28T05:04:22.753Z,208.90
2018-03-28T05:05:22.743Z,245.30
2018-03-28T05:06:22.731Z,230.60
2018-03-28T05:07:22.727Z,247.80
2018-03-28T05:08:22.717Z,208.60
2018-03-28T05:09:22.706Z,359.20
2018-03-28T05:10:22.694Z,267.60
2018-03-28T05:11:22.684Z,213.90
2018-03-28T05:12:22.673Z,194.50
2018-03-28T05:13:22.665Z,177.80
2018-03-28T05:14:22.660Z,162.40
2018-03-28T05:15:22.654Z,188.60
2018-03-28T05:16:22.638Z,167.90
2018-03-28T05:17:22.631Z,197.20
2018-03-28T05:18:22.619Z,188.00
2018-03-28T05:19:22.608Z,205.60
2018-03-28T05:20:22.599Z,169.50
2018-03-28T05:21:22.595Z,240.30
2018-03-28T05:22:22.584Z,183.70
2018-03-28T05:23:22.574Z,147.80
2018-03-28T05:24:22.565Z,168.40
2018-03-28T05:25:22.554Z,182.20
2018-03-28T05:26:22.549Z,150.70
2018-03-28T05:27:22.538Z,229.50
2018-03-28T05:28:22.529Z,145.10
2018-03-28T05:29:22.518Z,160.20
2018-03-28T05:30:22.510Z,167.60
2018-03-28T05:31:22.502Z,175.50
2018-03-28T05:32:22.487Z,152.70
2018-03-28T05:33:22.484Z,174.30
2018-03-28T05:34:22.470Z,118.70
2018-03-28T05:35:22.463Z,125.50
2018-03-28T05:36:22.453Z,132.00
2018-03-28T05:37:22.445Z,122.80
2018-03-28T05:38:22.438Z,154.20
2018-03-28T05:39:22.422Z,116.00
2018-03-28T05:40:22.420Z,121.50
2018-03-28T05:41:22.409Z,131.10
2018-03-28T05:42:22.398Z,113.90
2018-03-28T05:43:22.389Z,123.30
2018-03-28T05:44:22.377Z,125.10
2018-03-28T05:45:22.368Z,107.90
2018-03-28T05:46:22.360Z,112.00
2018-03-28T05:47:22.347Z,105.80
2018-03-28T05:48:22.343Z,111.30
2018-03-28T05:49:22.331Z,115.70
2018-03-28T05:50:22.353Z,110.50
2018-03-28T05:51:22.316Z,113.30
2018-03-28T05:52:22.303Z,120.50
2018-03-28T05:53:22.293Z,118.50
2018-03-28T05:54:22.285Z,118.90
2018-03-28T05:55:22.277Z,111.80
2018-03-28T05:56:22.267Z,119.10
2018-03-28T05:57:22.260Z,108.90
2018-03-28T05:58:22.252Z,116.60
2018-03-28T05:59:22.240Z,123.30
2018-03-28T06:00:22.259Z,118.30
2018-03-28T06:01:22.226Z,108.30
2018-03-28T06:02:22.213Z,109.40
2018-03-28T06:03:22.204Z,107.60
2018-03-28T06:04:22.198Z,118.60
2018-03-28T06:05:22.187Z,126.30
2018-03-28T06:06:22.176Z,114.70
2018-03-28T06:07:22.218Z,128.30
2018-03-28T06:08:22.156Z,122.30
2018-03-28T06:09:22.145Z,116.30
2018-03-28T06:10:22.141Z,108.00
2018-03-28T06:11:22.131Z,122.40
2018-03-28T06:12:22.123Z,127.80
2018-03-28T06:13:22.110Z,113.50
2018-03-28T06:14:22.101Z,145.20
2018-03-28T06:15:22.092Z,115.20
2018-03-28T06:16:22.081Z,116.90
2018-03-28T06:17:22.079Z,120.90
2018-03-28T06:18:22.073Z,135.70
2018-03-28T06:19:22.056Z,126.00
2018-03-28T06:20:22.045Z,133.60
2018-03-28T06:21:22.034Z,125.70
2018-03-28T06:22:22.026Z,143.70
2018-03-28T06:23:22.020Z,129.50
2018-03-28T06:24:22.013Z,133.30
2018-03-28T06:25:22.002Z,131.90
2018-03-28T06:26:21.991Z,136.40
2018-03-28T06:27:21.977Z,124.10
2018-03-28T06:28:21.978Z,120.00
2018-03-28T06:29:21.966Z,120.40
2018-03-28T06:30:21.956Z,131.20
2018-03-28T06:31:21.946Z,114.70
2018-03-28T06:32:21.938Z,123.60
2018-03-28T06:33:21.928Z,156.20
2018-03-28T06:34:21.916Z,133.30
2018-03-28T06:35:21.906Z,158.00
2018-03-28T06:36:21.904Z,127.10
2018-03-28T06:37:21.895Z,128.00
2018-03-28T06:38:21.882Z,128.90
2018-03-28T06:39:21.877Z,127.80
2018-03-28T06:40:21.861Z,124.30
2018-03-28T06:41:21.852Z,128.70
2018-03-28T06:42:21.846Z,154.80
2018-03-28T06:43:21.836Z,141.50
2018-03-28T06:44:21.834Z,152.20
2018-03-28T06:45:21.824Z,159.10
2018-03-28T06:46:21.811Z,148.60
2018-03-28T06:47:21.809Z,140.50
2018-03-28T06:48:21.786Z,158.60
2018-03-28T06:49:21.782Z,135.10
2018-03-28T06:50:21.779Z,140.30
2018-03-28T06:51:21.763Z,146.10
2018-03-28T06:52:21.756Z,140.40
2018-03-28T06:53:21.747Z,138.40
2018-03-28T06:54:21.732Z,136.20
2018-03-28T06:55:21.723Z,136.40
2018-03-28T06:56:21.718Z,154.80
2018-03-28T06:57:21.709Z,151.40
2018-03-28T06:58:21.700Z,147.50
2018-03-28T06:59:21.690Z,145.70
2018-03-28T07:00:21.681Z,157.80
2018-03-28T07:01:21.669Z,147.10
2018-03-28T07:02:21.660Z,146.30
2018-03-28T07:03:21.653Z,149.90
2018-03-28T07:04:21.643Z,183.70
2018-03-28T07:05:21.634Z,171.10
2018-03-28T07:06:21.624Z,163.30
2018-03-28T07:07:21.618Z,151.00
2018-03-28T07:08:21.604Z,152.50
2018-03-28T07:09:21.596Z,164.00
2018-03-28T07:10:21.588Z,139.20
2018-03-28T07:11:21.583Z,122.00
2018-03-28T07:12:21.569Z,128.70
2018-03-28T07:13:21.561Z,138.40
2018-03-28T07:14:21.552Z,143.80
2018-03-28T07:15:21.540Z,143.40
2018-03-28T07:16:21.529Z,160.50
2018-03-28T07:17:21.522Z,130.00
2018-03-28T07:18:21.512Z,120.80
2018-03-28T07:19:21.507Z,110.10
2018-03-28T07:20:21.499Z,118.60
2018-03-28T07:21:21.489Z,109.70
2018-03-28T07:22:21.483Z,127.80
2018-03-28T07:23:21.466Z,107.50
2018-03-28T07:24:21.461Z,127.40
2018-03-28T07:25:21.453Z,105.70
2018-03-28T07:26:21.445Z,115.80
2018-03-28T07:27:21.434Z,121.40
2018-03-28T07:28:21.426Z,113.40
2018-03-28T07:29:21.414Z,115.40
2018-03-28T07:30:21.411Z,124.00
2018-03-28T07:31:21.396Z,128.50
2018-03-28T07:32:21.390Z,129.30
2018-03-28T07:33:21.381Z,127.40
2018-03-28T07:34:21.377Z,133.60
2018-03-28T07:35:21.364Z,123.90
2018-03-28T07:36:21.348Z,120.40
2018-03-28T07:37:21.342Z,131.00
2018-03-28T07:38:21.334Z,123.40
2018-03-28T07:39:21.322Z,118.20
2018-03-28T07:40:21.319Z,106.00
2018-03-28T07:41:21.311Z,97.20
2018-03-28T07:42:21.303Z,105.40
2018-03-28T07:43:21.291Z,115.20
2018-03-28T07:44:21.282Z,114.20
2018-03-28T07:45:21.276Z,95.60
2018-03-28T07:46:21.264Z,91.90
2018-03-28T07:47:21.256Z,91.00
2018-03-28T07:48:21.244Z,91.30
2018-03-28T07:49:21.238Z,90.30
2018-03-28T07:50:21.228Z,100.10
2018-03-28T07:51:21.218Z,100.20
2018-03-28T07:52:21.208Z,97.10
2018-03-28T07:53:21.207Z,87.20
2018-03-28T07:54:21.193Z,82.90
2018-03-28T07:55:21.184Z,82.00
2018-03-28T07:56:21.180Z,78.80
2018-03-28T07:57:21.163Z,78.50
2018-03-28T07:58:21.155Z,75.40
2018-03-28T07:59:21.144Z,72.90
2018-03-28T08:00:21.136Z,83.00
2018-03-28T08:01:21.133Z,82.10
2018-03-28T08:02:21.124Z,78.40
2018-03-28T08:03:21.110Z,81.30
2018-03-28T08:04:21.101Z,72.80
2018-03-28T08:05:21.096Z,80.30
2018-03-28T08:06:21.083Z,82.10
2018-03-28T08:07:21.079Z,67.80
2018-03-28T08:08:21.068Z,74.70
2018-03-28T08:09:21.060Z,72.20
2018-03-28T08:10:21.063Z,71.20
2018-03-28T08:11:21.040Z,71.30
2018-03-28T08:12:21.036Z,78.20
2018-03-28T08:13:21.030Z,71.20
2018-03-28T08:14:21.017Z,69.00
2018-03-28T08:15:21.008Z,72.40
2018-03-28T08:16:20.998Z,71.70
2018-03-28T08:17:20.990Z,66.10
2018-03-28T08:18:20.980Z,63.30
2018-03-28T08:19:20.973Z,68.00
2018-03-28T08:20:20.962Z,63.30
2018-03-28T08:21:20.954Z,67.50
2018-03-28T08:22:20.948Z,63.70
2018-03-28T08:23:20.936Z,65.80
2018-03-28T08:24:20.931Z,63.90
2018-03-28T08:25:20.924Z,60.90
2018-03-28T08:26:20.918Z,65.40
2018-03-28T08:27:20.907Z,63.70
2018-03-28T08:28:20.898Z,62.10
2018-03-28T08:29:20.886Z,56.40
2018-03-28T08:30:20.882Z,61.40
2018-03-28T08:31:20.868Z,64.00
2018-03-28T08:32:20.860Z,58.10
2018-03-28T08:33:20.860Z,56.80
2018-03-28T08:34:20.845Z,53.80
2018-03-28T08:35:20.837Z,58.00
2018-03-28T08:36:20.830Z,54.90
2018-03-28T08:37:20.820Z,56.50
2018-03-28T08:38:20.814Z,59.90
2018-03-28T08:39:20.808Z,54.80
2018-03-28T08:40:20.803Z,51.60
2018-03-28T08:41:20.791Z,50.20
2018-03-28T08:42:20.780Z,52.40
2018-03-28T08:43:20.773Z,55.60
2018-03-28T08:44:20.768Z,54.70
2018-03-28T08:45:20.759Z,56.50
2018-03-28T08:46:20.779Z,54.50
2018-03-28T08:47:20.745Z,58.80
2018-03-28T08:48:20.764Z,52.00
2018-03-28T08:49:20.726Z,51.30
2018-03-28T08:50:20.718Z,52.60
2018-03-28T08:51:20.708Z,52.30
2018-03-28T08:52:20.703Z,54.10
2018-03-28T08:53:20.696Z,56.80
2018-03-28T08:54:20.698Z,55.00
2018-03-28T08:55:20.678Z,50.70
2018-03-28T08:56:20.674Z,50.10
2018-03-28T08:57:20.665Z,49.00
2018-03-28T08:58:20.661Z,48.70
2018-03-28T08:59:20.653Z,48.70
2018-03-28T09:00:20.644Z,49.20
2018-03-28T09:01:20.636Z,49.10
2018-03-28T09:02:20.629Z,46.90
2018-03-28T09:03:20.619Z,48.20
2018-03-28T09:04:20.622Z,47.00
2018-03-28T09:05:20.610Z,47.00
2018-03-28T09:06:20.603Z,50.50
2018-03-28T09:07:20.596Z,45.00
2018-03-28T09:08:20.587Z,44.30
2018-03-28T09:09:20.578Z,45.10
2018-03-28T09:10:20.572Z,45.40
2018-03-28T09:11:20.565Z,48.10
2018-03-28T09:12:20.568Z,46.80
2018-03-28T09:13:20.554Z,45.70
2018-03-28T09:14:20.551Z,46.00
2018-03-28T09:15:20.547Z,44.50
2018-03-28T09:16:20.536Z,44.10
2018-03-28T09:17:20.526Z,42.50
2018-03-28T09:18:20.523Z,46.30
2018-03-28T09:19:20.522Z,45.10
2018-03-28T09:20:20.509Z,42.60
2018-03-28T09:21:20.498Z,43.10
2018-03-28T09:22:20.492Z,42.70
2018-03-28T09:23:20.483Z,44.10
2018-03-28T09:24:20.482Z,41.00
2018-03-28T09:25:20.476Z,44.20
2018-03-28T09:26:20.468Z,47.90
2018-03-28T09:27:20.455Z,43.90
2018-03-28T09:28:20.450Z,42.40
2018-03-28T09:29:20.444Z,42.10
2018-03-28T09:30:20.441Z,42.30
2018-03-28T09:31:20.437Z,41.50
2018-03-28T09:32:20.423Z,43.90
2018-03-28T09:33:20.423Z,40.10
2018-03-28T09:34:20.409Z,44.00
2018-03-28T09:35:20.404Z,42.90
2018-03-28T09:36:20.397Z,41.80
2018-03-28T09:37:20.392Z,43.20
2018-03-28T09:38:20.385Z,42.70
2018-03-28T09:39:20.379Z,40.70
2018-03-28T09:40:20.377Z,43.60
2018-03-28T09:41:20.363Z,42.40
2018-03-28T09:42:20.360Z,43.40
2018-03-28T09:43:20.349Z,42.10
2018-03-28T09:44:20.347Z,40.40
2018-03-28T09:45:20.339Z,40.70
2018-03-28T09:46:20.333Z,38.00
2018-03-28T09:47:20.318Z,41.90
2018-03-28T09:48:20.314Z,46.10
2018-03-28T09:49:20.304Z,63.20
2018-03-28T09:50:20.307Z,85.90
2018-03-28T09:51:20.294Z,61.50
2018-03-28T09:52:20.291Z,53.50
2018-03-28T09:53:20.277Z,59.80
2018-03-28T09:54:20.276Z,45.20
2018-03-28T09:55:20.265Z,41.70
2018-03-28T09:56:20.266Z,41.00
2018-03-28T09:57:20.254Z,39.90
2018-03-28T09:58:20.246Z,38.80
2018-03-28T09:59:20.249Z,40.80
2018-03-28T10:00:20.231Z,39.00
2018-03-28T10:01:20.224Z,38.50
2018-03-28T10:02:20.217Z,38.90
2018-03-28T10:03:20.265Z,42.60
2018-03-28T10:04:20.203Z,38.10
2018-03-28T10:05:20.201Z,42.20
2018-03-28T10:06:20.190Z,38.30
2018-03-28T10:07:20.182Z,40.00
2018-03-28T10:08:20.182Z,40.40
2018-03-28T10:09:20.174Z,42.10
2018-03-28T10:10:20.167Z,40.10
2018-03-28T10:11:20.160Z,38.50
2018-03-28T10:12:20.150Z,40.00
2018-03-28T10:13:20.141Z,41.50
2018-03-28T10:14:20.137Z,37.10
2018-03-28T10:15:20.131Z,42.70
2018-03-28T10:16:20.125Z,43.00
2018-03-28T10:17:20.120Z,40.80
2018-03-28T10:18:20.113Z,41.60
2018-03-28T10:19:20.134Z,39.10
2018-03-28T10:20:20.095Z,41.50
2018-03-28T10:21:20.091Z,40.60
2018-03-28T10:22:20.090Z,40.80
2018-03-28T10:23:20.077Z,37.60
2018-03-28T10:24:20.072Z,41.40
2018-03-28T10:25:20.063Z,39.60
2018-03-28T10:26:20.056Z,37.50
2018-03-28T10:27:20.047Z,40.00
2018-03-28T10:28:20.039Z,41.70
2018-03-28T10:29:20.037Z,39.60
2018-03-28T10:30:20.033Z,42.30
2018-03-28T10:31:20.024Z,39.40
2018-03-28T10:32:20.016Z,40.70
2018-03-28T10:33:20.006Z,39.40
2018-03-28T10:34:20.000Z,42.70
2018-03-28T10:35:19.999Z,39.60
2018-03-28T10:36:19.993Z,41.00
2018-03-28T10:37:19.982Z,41.40
2018-03-28T10:38:19.976Z,42.70
2018-03-28T10:39:19.966Z,42.90
2018-03-28T10:40:19.964Z,40.00
2018-03-28T10:41:19.952Z,41.30
2018-03-28T10:42:19.948Z,40.80
2018-03-28T10:43:19.941Z,39.20
2018-03-28T10:44:19.932Z,41.80
2018-03-28T10:45:19.926Z,36.80
2018-03-28T10:46:19.921Z,41.80
2018-03-28T10:47:19.931Z,36.80
2018-03-28T10:48:19.905Z,37.10
2018-03-28T10:49:19.899Z,36.60
2018-03-28T10:50:19.892Z,38.00
2018-03-28T10:51:19.883Z,36.40
2018-03-28T10:52:19.876Z,37.90
2018-03-28T10:53:19.865Z,37.80
2018-03-28T10:54:19.861Z,37.70
2018-03-28T10:55:19.856Z,35.50
2018-03-28T10:56:19.849Z,35.60
2018-03-28T10:57:19.842Z,36.50
2018-03-28T10:58:19.836Z,33.60
2018-03-28T10:59:19.830Z,36.40
2018-03-28T11:00:19.818Z,34.80
2018-03-28T11:01:19.819Z,35.80
2018-03-28T11:02:19.806Z,36.90
2018-03-28T11:03:19.823Z,32.10
2018-03-28T11:04:19.796Z,34.20
2018-03-28T11:05:19.786Z,35.50
2018-03-28T11:06:19.778Z,36.10
2018-03-28T11:07:19.776Z,37.00
2018-03-28T11:08:19.769Z,31.10
2018-03-28T11:09:19.759Z,34.00
2018-03-28T11:10:19.759Z,32.20
2018-03-28T11:11:19.746Z,36.10
2018-03-28T11:12:19.750Z,37.80
2018-03-28T11:13:19.728Z,35.80
2018-03-28T11:14:19.722Z,35.70
2018-03-28T11:15:19.718Z,35.00
2018-03-28T11:16:19.715Z,34.50
2018-03-28T11:17:19.709Z,31.90
2018-03-28T11:18:19.692Z,34.00
2018-03-28T11:19:19.685Z,33.60
2018-03-28T11:20:19.680Z,32.50
2018-03-28T11:21:19.673Z,32.20
2018-03-28T11:22:19.672Z,35.20
2018-03-28T11:23:19.663Z,34.50
2018-03-28T11:24:19.657Z,34.40
2018-03-28T11:25:19.643Z,34.80
2018-03-28T11:26:19.635Z,31.80
2018-03-28T11:27:19.636Z,33.00
2018-03-28T11:28:19.629Z,32.40
2018-03-28T11:29:19.616Z,33.10
2018-03-28T11:30:19.610Z,33.00
2018-03-28T11:31:19.617Z,34.20
2018-03-28T11:32:19.593Z,32.40
2018-03-28T11:33:19.588Z,33.30
2018-03-28T11:34:19.604Z,34.60
2018-03-28T11:35:19.578Z,35.20
2018-03-28T11:36:19.570Z,33.20
2018-03-28T11:37:19.563Z,33.30
2018-03-28T11:38:19.558Z,34.10
2018-03-28T11:39:19.545Z,34.50
2018-03-28T11:40:19.538Z,33.10
2018-03-28T11:41:19.533Z,33.30
2018-03-28T11:42:19.527Z,35.40
2018-03-28T11:43:19.521Z,35.90
2018-03-28T11:44:19.511Z,33.20
2018-03-28T11:45:19.503Z,34.90
2018-03-28T11:46:19.508Z,36.10
2018-03-28T11:47:19.487Z,34.00
2018-03-28T11:48:19.482Z,35.90
2018-03-28T11:49:19.481Z,33.30
2018-03-28T11:50:19.469Z,34.90
2018-03-28T11:51:19.456Z,33.20
2018-03-28T11:52:19.456Z,34.70
2018-03-28T11:53:19.442Z,33.50
2018-03-28T11:54:19.435Z,33.10
2018-03-28T11:55:19.432Z,34.10
2018-03-28T11:56:19.424Z,33.90
2018-03-28T11:57:19.423Z,34.10
2018-03-28T11:58:19.442Z,36.30
2018-03-28T11:59:19.402Z,34.70
2018-03-28T12:00:19.393Z,35.00
2018-03-28T12:01:19.390Z,35.80
2018-03-28T12:02:19.380Z,36.00
2018-03-28T12:03:19.372Z,36.90
2018-03-28T12:04:19.366Z,34.00
2018-03-28T12:05:19.362Z,36.20
2018-03-28T12:06:19.349Z,36.00
2018-03-28T12:07:19.345Z,36.60
2018-03-28T12:08:19.340Z,35.90
2018-03-28T12:09:19.327Z,36.60
2018-03-28T12:10:19.329Z,36.80
2018-03-28T12:11:19.309Z,36.90
2018-03-28T12:12:19.301Z,37.90
2018-03-28T12:13:19.346Z,36.20
2018-03-28T12:14:19.323Z,38.70
2018-03-28T12:15:19.565Z,35.80
2018-03-28T12:16:19.277Z,38.80
2018-03-28T12:17:19.270Z,36.00
2018-03-28T12:18:19.260Z,39.00
2018-03-28T12:19:19.251Z,37.30
2018-03-28T12:20:19.246Z,38.10
2018-03-28T12:21:19.240Z,36.80
2018-03-28T12:22:19.233Z,37.60
2018-03-28T12:23:19.224Z,38.90
2018-03-28T12:24:19.216Z,37.10
2018-03-28T12:25:19.207Z,38.90
2018-03-28T12:26:19.199Z,39.50
2018-03-28T12:27:19.191Z,40.70
2018-03-28T12:28:19.187Z,40.70
2018-03-28T12:29:19.176Z,47.50
2018-03-28T12:30:19.171Z,42.40
2018-03-28T12:31:19.165Z,38.60
2018-03-28T12:32:19.155Z,44.10
2018-03-28T12:33:19.149Z,40.40
2018-03-28T12:34:19.150Z,41.30
2018-03-28T12:35:19.134Z,42.90
2018-03-28T12:36:19.127Z,42.00
2018-03-28T12:37:19.118Z,43.90
2018-03-28T12:38:19.108Z,42.10
2018-03-28T12:39:19.102Z,41.50
2018-03-28T12:40:19.099Z,48.60
2018-03-28T12:41:19.089Z,45.00
2018-03-28T12:42:19.078Z,45.50
2018-03-28T12:43:19.073Z,44.00
2018-03-28T12:44:19.065Z,44.80
2018-03-28T12:45:19.053Z,46.40
2018-03-28T12:46:19.048Z,48.00
2018-03-28T12:47:19.051Z,50.80
2018-03-28T12:48:19.067Z,46.40
2018-03-28T12:49:19.026Z,44.60
2018-03-28T12:50:19.021Z,50.00
2018-03-28T12:51:19.008Z,51.40
2018-03-28T12:52:19.152Z,52.40
2018-03-28T12:53:18.994Z,52.90
2018-03-28T12:54:18.987Z,54.50
2018-03-28T12:55:18.982Z,54.30
2018-03-28T12:56:18.976Z,53.40
2018-03-28T12:57:18.965Z,51.90
2018-03-28T12:58:18.955Z,57.50
2018-03-28T12:59:18.945Z,58.20
2018-03-28T13:00:18.940Z,61.20
2018-03-28T13:01:18.932Z,58.70
2018-03-28T13:02:18.938Z,69.60
2018-03-28T13:03:18.918Z,58.10
2018-03-28T13:04:18.908Z,73.50
2018-03-28T13:05:18.927Z,61.00
2018-03-28T13:06:18.896Z,76.20
2018-03-28T13:07:18.887Z,71.50
2018-03-28T13:08:18.875Z,66.80
2018-03-28T13:09:18.889Z,70.80
2018-03-28T13:10:18.859Z,73.00
2018-03-28T13:11:18.851Z,79.00
2018-03-28T13:12:18.843Z,83.40
2018-03-28T13:13:18.836Z,74.70
2018-03-28T13:14:18.828Z,80.40
2018-03-28T13:15:18.819Z,72.60
2018-03-28T13:16:18.874Z,85.70
2018-03-28T13:17:18.806Z,80.40
2018-03-28T13:18:18.793Z,99.90
2018-03-28T13:19:18.786Z,91.80
2018-03-28T13:20:18.781Z,92.90
2018-03-28T13:21:18.774Z,85.70
2018-03-28T13:22:18.790Z,86.90